createdAt,value
2022-08-07T00:07:09.441Z,16.90
2022-08-07T00:17:12.952Z,16.80
2022-08-07T00:27:15.741Z,16.70
2022-08-07T00:37:19.085Z,16.60
2022-08-07T00:48:16.326Z,16.50
2022-08-07T00:57:55.638Z,16.40
2022-08-07T01:07:58.075Z,16.30
2022-08-07T01:18:01.771Z,16.20
2022-08-07T01:28:05.498Z,16.10
2022-08-07T01:38:07.800Z,15.90
2022-08-07T01:48:20.503Z,15.70
2022-08-07T01:58:37.487Z,15.60
2022-08-07T02:08:46.325Z,15.30
2022-08-07T02:18:56.544Z,15.20
2022-08-07T02:29:02.268Z,15.10
2022-08-07T02:39:16.187Z,14.90
2022-08-07T02:49:29.210Z,14.70
2022-08-07T02:59:44.449Z,14.50
2022-08-07T03:09:59.738Z,14.40
2022-08-07T03:20:02.182Z,14.20
2022-08-07T03:30:06.551Z,14.10
2022-08-07T03:40:15.768Z,13.90
2022-08-07T03:50:23.432Z,13.80
2022-08-07T04:00:30.492Z,13.70
2022-08-07T04:10:38.838Z,13.60
2022-08-07T04:20:43.066Z,13.40
2022-08-07T04:30:58.874Z,13.30
2022-08-07T04:41:01.856Z,13.20
2022-08-07T04:51:12.840Z,13.00
2022-08-07T05:01:30.297Z,12.90
2022-08-07T05:11:58.348Z,13.00
2022-08-07T05:22:01.854Z,13.00
2022-08-07T05:32:09.985Z,13.00
2022-08-07T05:42:14.541Z,13.10
2022-08-07T05:52:20.067Z,13.40
2022-08-07T06:02:28.735Z,13.40
2022-08-07T06:12:34.189Z,13.70
2022-08-07T06:22:40.085Z,14.10
2022-08-07T06:32:43.612Z,14.40
2022-08-07T06:42:49.374Z,14.80
2022-08-07T06:52:55.883Z,15.30
2022-08-07T07:03:01.239Z,15.70
2022-08-07T07:13:17.106Z,16.30
2022-08-07T07:24:10.105Z,16.70
2022-08-07T07:34:06.602Z,17.10
2022-08-07T07:44:17.133Z,17.60
2022-08-07T07:54:21.816Z,17.90
2022-08-07T08:04:30.712Z,18.20
2022-08-07T08:14:36.499Z,18.60
2022-08-07T08:24:45.538Z,19.00
2022-08-07T08:34:52.385Z,21.20
2022-08-07T08:45:04.158Z,24.30
2022-08-07T08:55:20.997Z,26.80
2022-08-07T09:05:43.389Z,28.20
2022-08-07T09:16:23.250Z,29.60
2022-08-07T09:26:23.641Z,29.90
2022-08-07T09:36:35.776Z,30.60
2022-08-07T09:47:52.781Z,31.10
2022-08-07T09:58:07.580Z,31.60
2022-08-07T10:08:27.149Z,32.20
2022-08-07T10:19:20.233Z,31.60
2022-08-07T10:29:56.265Z,31.50
2022-08-07T10:40:09.159Z,31.30
2022-08-07T10:50:15.243Z,31.40
2022-08-07T11:00:37.029Z,30.70
2022-08-07T11:22:18.901Z,29.80
2022-08-07T11:32:40.579Z,29.40
2022-08-07T11:42:56.447Z,29.10
2022-08-07T11:53:16.169Z,28.80
2022-08-07T12:03:53.216Z,28.90
2022-08-07T12:14:01.609Z,28.50
2022-08-07T12:25:02.070Z,28.60
2022-08-07T12:35:13.367Z,28.10
2022-08-07T12:56:34.154Z,28.10
2022-08-07T13:07:01.389Z,28.10
2022-08-07T13:17:12.058Z,28.40
2022-08-07T13:27:20.655Z,28.00
2022-08-07T13:37:29.026Z,27.90
2022-08-07T13:48:08.146Z,28.20
2022-08-07T13:58:05.714Z,28.10
2022-08-07T14:08:15.081Z,28.30
2022-08-07T14:18:28.910Z,28.10
2022-08-07T14:28:57.373Z,28.20
2022-08-07T15:22:04.442Z,29.30
2022-08-07T15:32:12.438Z,29.40
2022-08-07T15:42:47.857Z,29.50
2022-08-07T15:52:52.390Z,29.10
2022-08-07T16:14:11.811Z,28.90
2022-08-07T16:24:33.762Z,28.90
2022-08-07T16:34:48.117Z,28.70
2022-08-07T16:45:23.327Z,28.40
2022-08-07T16:55:47.407Z,28.30
2022-08-07T17:06:19.035Z,28.30
2022-08-07T17:16:55.916Z,27.80
2022-08-07T17:27:03.231Z,27.50
2022-08-07T17:38:05.158Z,27.20
2022-08-07T17:47:42.867Z,27.00
2022-08-07T17:57:58.625Z,26.70
2022-08-07T18:08:16.448Z,26.60
2022-08-07T18:21:03.008Z,26.10
2022-08-07T18:30:07.091Z,25.90
2022-08-07T18:40:08.480Z,25.70
2022-08-07T18:50:45.885Z,25.40
2022-08-07T19:00:54.953Z,25.20
2022-08-07T19:11:35.852Z,24.90
2022-08-07T19:21:53.636Z,24.70
2022-08-07T19:32:16.315Z,24.40
2022-08-07T19:42:30.749Z,24.20
2022-08-07T19:52:45.291Z,23.90
2022-08-07T20:03:06.784Z,23.60
2022-08-07T20:13:37.071Z,23.40
2022-08-07T20:23:53.582Z,23.10
2022-08-07T20:33:58.751Z,22.80
2022-08-07T20:44:02.717Z,22.50
2022-08-07T20:54:07.218Z,22.20
2022-08-07T21:04:22.215Z,21.80
2022-08-07T21:14:32.626Z,21.40
2022-08-07T21:24:48.049Z,21.10
2022-08-07T21:34:57.092Z,20.80
2022-08-07T21:46:09.502Z,20.40
2022-08-07T21:55:39.337Z,20.20
2022-08-07T22:05:51.295Z,19.90
2022-08-07T22:16:39.458Z,19.60
2022-08-07T22:26:28.372Z,19.30
2022-08-07T22:36:38.508Z,19.10
2022-08-07T22:47:17.019Z,19.00
2022-08-07T22:57:45.091Z,18.70
2022-08-07T23:07:56.821Z,18.50
2022-08-07T23:18:10.010Z,18.40
2022-08-07T23:28:28.230Z,18.20
2022-08-07T23:38:54.533Z,18.00
2022-08-07T23:49:49.756Z,17.80
